Southlake's Hourly Summary for Tuesday, May 15, 2018
Hour Temp
(f)
RH
(%)
Solar Rad.
(MJ/m2)
Rainfall
(in)
Wind
(mph)
5/15/2018 12:00 AM 79 67 0 0 5.74
5/15/2018 1:00 AM 79 68 0 0 5.14
5/15/2018 2:00 AM 78 70 0 0 5.26
5/15/2018 3:00 AM 77 73 0 0 4.47
5/15/2018 4:00 AM 76 75 0 0 5.42
5/15/2018 5:00 AM 76 77 0 0 3.86
5/15/2018 6:00 AM 75 80 0 0 4.25
5/15/2018 7:00 AM 75 82 0.12 0 3.08
5/15/2018 8:00 AM 76 80 0.37 0 2.68
5/15/2018 9:00 AM 77 78 0.51 0 3.41
5/15/2018 10:00 AM 78 75 1.17 0 4.08
5/15/2018 11:00 AM 79 73 2.01 0 5.08
5/15/2018 12:00 PM 82 67 2.98 0 5.2
5/15/2018 1:00 PM 84 60 3.52 0 5.7
5/15/2018 2:00 PM 86 56 3.25 0 4.81
5/15/2018 3:00 PM 87 52 2.65 0 5.48
5/15/2018 4:00 PM 86 54 0.99 0 5.09
5/15/2018 5:00 PM 85 54 0.19 0 4.03
5/15/2018 6:00 PM 85 53 0.66 0 4.08
5/15/2018 7:00 PM 80 63 0.23 0 4.7
5/15/2018 8:00 PM 78 62 0.02 0 4.92
5/15/2018 9:00 PM 78 62 0 0 2.74
5/15/2018 10:00 PM 76 67 0 0 1.96
5/15/2018 11:00 PM 74 74 0 0 1.12
Data Summary 79 67 18.67 0.00 4.26